Koyo Maru — JI3710 — position and weather

sailwx.info

Track history (hours):
 
Tides and Currents Weather Stations Pressure Air Temp Water Temp Dewpoint Dewpoint Depression Visibility Wind Speed Wind Dir Waves Ship Positions

Koyo Maru

Last reported at 2017-Feb-22 21:33 UTC. Time now 2017-Feb-23 11:56 UTC.
Position N 34°05' E 132°27'.

Length 125 m; draft 6 m.

Type: Cargo ship. MMSI: 431401953.

Date/timePositionNaut miles runAvg speedWind from/ knotsBaromVisibWave heightAir tempDewpointWater temp
2017-Feb-22 21:33N 34°05' E 132°27'1515.4
2017-Feb-22 20:33N 34°07' E 132°46'111 3.5
2017-Feb-21 12:30N 34°03' E 134°60'2018.9
2017-Feb-21 11:26N 34°23' E 135°01'1719.0
2017-Feb-21 10:33N 34°33' E 135°17'7 6.3
2017-Feb-21 09:23N 34°35' E 135°26'0 0.0
2017-Feb-21 08:23N 34°35' E 135°26'0 0.0
2017-Feb-21 07:23N 34°35' E 135°26'0 0.0
2017-Feb-21 06:29N 34°35' E 135°26'0 0.0
2017-Feb-21 05:29N 34°35' E 135°26'0 0.0
2017-Feb-21 04:29N 34°35' E 135°26'0 0.0
2017-Feb-21 03:23N 34°35' E 135°26'0 0.0
2017-Feb-21 02:29N 34°35' E 135°26'0 0.0
2017-Feb-21 01:17N 34°35' E 135°26'0 0.0
2017-Feb-21 00:30N 34°35' E 135°26'5 5.2
2017-Feb-20 23:34N 34°36' E 135°20'1615.9
2017-Feb-20 22:33N 34°37' E 135°00'12115.1
2017-Feb-20 14:32N 34°05' E 132°39'21 0.8
2017-Feb-19 10:33N 34°01' E 132°14'1812.8
2017-Feb-19 09:07N 33°48' E 131°58'8 0.4
2017-Feb-18 15:03N 33°53' E 131°51'1515.0
2017-Feb-18 14:05N 33°48' E 132°08'916.5
2017-Feb-18 13:33N 33°57' E 132°09'21 3.3
2017-Feb-18 07:06N 34°16' E 132°21'915.0
2017-Feb-18 06:28N 34°07' E 132°24'1213.1
2017-Feb-18 05:33N 33°59' E 132°13'18 0.9
2017-Feb-17 09:33N 33°52' E 131°53'1413.8
2017-Feb-17 08:33N 33°50' E 132°09'1616.1
2017-Feb-17 07:32N 34°05' E 132°16'9 0.4
2017-Feb-16 07:24N 34°13' E 132°22'1416.3
2017-Feb-16 06:33N 34°02' E 132°33'121 2.7
2017-Feb-14 10:25N 34°05' E 134°59'1718.7
2017-Feb-14 09:31N 34°22' E 135°01'1819.0
2017-Feb-14 08:34N 34°34' E 135°18'7 6.0
2017-Feb-14 07:25N 34°35' E 135°26'0 0.0
2017-Feb-14 06:31N 34°35' E 135°26'0 0.0
2017-Feb-14 05:31N 34°35' E 135°26'0 0.0
2017-Feb-14 04:31N 34°35' E 135°26'0 0.0
2017-Feb-14 03:31N 34°35' E 135°26'0 0.0
2017-Feb-14 02:31N 34°35' E 135°26'0 0.0
2017-Feb-14 01:25N 34°35' E 135°26'0 0.0
2017-Feb-14 00:25N 34°35' E 135°26'0 0.0
2017-Feb-13 23:31N 34°35' E 135°26'0 0.0
2017-Feb-13 22:32N 34°35' E 135°26'7 6.9
2017-Feb-13 21:33N 34°34' E 135°17'0 0.1
2017-Feb-13 20:33N 34°34' E 135°17'0 0.0
2017-Feb-13 19:33N 34°34' E 135°17'0 0.0
2017-Feb-13 18:33N 34°34' E 135°17'1010.5
2017-Feb-13 17:33N 34°34' E 135°05'11816.3
2017-Feb-13 10:20N 34°07' E 132°46'1317.4
2017-Feb-13 09:33N 34°02' E 132°31'  
Track history (hours):
 
Tides and Currents Weather Stations Pressure Air Temp Water Temp Dewpoint Dewpoint Depression Visibility Wind Speed Wind Dir Waves Ship Positions

Koyo Maru

Last reported at 2017-Feb-22 21:33 UTC. Time now 2017-Feb-23 11:56 UTC.
Position N 34°05' E 132°27'.

Length 125 m; draft 6 m.

Type: Cargo ship. MMSI: 431401953.

Date/timePositionNaut miles runAvg speedWind from/ knotsBaromVisibWave heightAir tempDewpointWater temp
2017-Feb-22 21:33N 34°05' E 132°27'1515.4
2017-Feb-22 20:33N 34°07' E 132°46'111 3.5
2017-Feb-21 12:30N 34°03' E 134°60'2018.9
2017-Feb-21 11:26N 34°23' E 135°01'1719.0
2017-Feb-21 10:33N 34°33' E 135°17'7 6.3
2017-Feb-21 09:23N 34°35' E 135°26'0 0.0
2017-Feb-21 08:23N 34°35' E 135°26'0 0.0
2017-Feb-21 07:23N 34°35' E 135°26'0 0.0
2017-Feb-21 06:29N 34°35' E 135°26'0 0.0
2017-Feb-21 05:29N 34°35' E 135°26'0 0.0
2017-Feb-21 04:29N 34°35' E 135°26'0 0.0
2017-Feb-21 03:23N 34°35' E 135°26'0 0.0
2017-Feb-21 02:29N 34°35' E 135°26'0 0.0
2017-Feb-21 01:17N 34°35' E 135°26'0 0.0
2017-Feb-21 00:30N 34°35' E 135°26'5 5.2
2017-Feb-20 23:34N 34°36' E 135°20'1615.9
2017-Feb-20 22:33N 34°37' E 135°00'12115.1
2017-Feb-20 14:32N 34°05' E 132°39'21 0.8
2017-Feb-19 10:33N 34°01' E 132°14'1812.8
2017-Feb-19 09:07N 33°48' E 131°58'8 0.4
2017-Feb-18 15:03N 33°53' E 131°51'1515.0
2017-Feb-18 14:05N 33°48' E 132°08'916.5
2017-Feb-18 13:33N 33°57' E 132°09'21 3.3
2017-Feb-18 07:06N 34°16' E 132°21'915.0
2017-Feb-18 06:28N 34°07' E 132°24'1213.1
2017-Feb-18 05:33N 33°59' E 132°13'18 0.9
2017-Feb-17 09:33N 33°52' E 131°53'1413.8
2017-Feb-17 08:33N 33°50' E 132°09'1616.1
2017-Feb-17 07:32N 34°05' E 132°16'9 0.4
2017-Feb-16 07:24N 34°13' E 132°22'1416.3
2017-Feb-16 06:33N 34°02' E 132°33'121 2.7
2017-Feb-14 10:25N 34°05' E 134°59'1718.7
2017-Feb-14 09:31N 34°22' E 135°01'1819.0
2017-Feb-14 08:34N 34°34' E 135°18'7 6.0
2017-Feb-14 07:25N 34°35' E 135°26'0 0.0
2017-Feb-14 06:31N 34°35' E 135°26'0 0.0
2017-Feb-14 05:31N 34°35' E 135°26'0 0.0
2017-Feb-14 04:31N 34°35' E 135°26'0 0.0
2017-Feb-14 03:31N 34°35' E 135°26'0 0.0
2017-Feb-14 02:31N 34°35' E 135°26'0 0.0
2017-Feb-14 01:25N 34°35' E 135°26'0 0.0
2017-Feb-14 00:25N 34°35' E 135°26'0 0.0
2017-Feb-13 23:31N 34°35' E 135°26'0 0.0
2017-Feb-13 22:32N 34°35' E 135°26'7 6.9
2017-Feb-13 21:33N 34°34' E 135°17'0 0.1
2017-Feb-13 20:33N 34°34' E 135°17'0 0.0
2017-Feb-13 19:33N 34°34' E 135°17'0 0.0
2017-Feb-13 18:33N 34°34' E 135°17'1010.5
2017-Feb-13 17:33N 34°34' E 135°05'11816.3
2017-Feb-13 10:20N 34°07' E 132°46'1317.4
2017-Feb-13 09:33N 34°02' E 132°31'  

Dump ship's entire track history